createdAt,value
2018-09-24T00:01:07.463Z,8.50
2018-09-24T00:03:36.331Z,8.40
2018-09-24T00:06:05.228Z,8.40
2018-09-24T00:08:34.109Z,8.40
2018-09-24T00:11:03.028Z,8.40
2018-09-24T00:13:31.918Z,8.40
2018-09-24T00:16:00.822Z,8.40
2018-09-24T00:18:29.707Z,8.40
2018-09-24T00:20:58.609Z,8.40
2018-09-24T00:23:28.291Z,8.40
2018-09-24T00:25:57.183Z,8.50
2018-09-24T00:28:30.854Z,8.50
2018-09-24T00:30:59.759Z,8.50
2018-09-24T00:33:28.627Z,8.60
2018-09-24T00:35:57.516Z,8.70
2018-09-24T00:38:26.395Z,8.70
2018-09-24T00:40:55.263Z,8.80
2018-09-24T00:43:24.126Z,8.80
2018-09-24T00:45:52.986Z,8.90
2018-09-24T00:48:22.051Z,9.00
2018-09-24T00:50:50.933Z,8.90
2018-09-24T00:53:19.803Z,8.90
2018-09-24T00:55:48.694Z,8.90
2018-09-24T00:58:17.549Z,8.90
2018-09-24T01:00:46.450Z,8.80
2018-09-24T01:03:15.326Z,8.80
2018-09-24T01:05:44.194Z,8.80
2018-09-24T01:08:13.050Z,8.80
2018-09-24T01:10:41.914Z,8.80
2018-09-24T01:13:10.802Z,8.80
2018-09-24T01:15:39.678Z,8.70
2018-09-24T01:18:08.546Z,8.70
2018-09-24T01:20:37.446Z,8.70
2018-09-24T01:23:06.294Z,8.80
2018-09-24T01:25:35.166Z,8.80
2018-09-24T01:28:04.044Z,8.80
2018-09-24T01:30:32.930Z,8.80
2018-09-24T01:33:02.115Z,8.80
2018-09-24T01:35:31.017Z,8.80
2018-09-24T01:37:59.894Z,8.80
2018-09-24T01:40:28.783Z,8.70
2018-09-24T01:42:57.654Z,8.70
2018-09-24T01:45:26.563Z,8.70
2018-09-24T01:47:55.435Z,8.70
2018-09-24T01:50:24.319Z,8.80
2018-09-24T01:52:53.222Z,8.80
2018-09-24T01:55:22.101Z,8.80
2018-09-24T01:57:50.967Z,8.80
2018-09-24T02:00:19.842Z,8.90
2018-09-24T02:02:48.723Z,8.90
2018-09-24T02:05:17.615Z,8.90
2018-09-24T02:07:46.482Z,8.90
2018-09-24T02:10:21.966Z,8.80
2018-09-24T02:12:52.454Z,8.90
2018-09-24T02:15:25.806Z,8.90
2018-09-24T02:17:54.703Z,8.90
2018-09-24T02:20:23.615Z,8.90
2018-09-24T02:22:52.490Z,8.90
2018-09-24T02:25:21.421Z,8.90
2018-09-24T02:27:50.410Z,8.80
2018-09-24T02:30:20.023Z,8.80
2018-09-24T02:32:48.918Z,8.80
2018-09-24T02:35:17.815Z,8.80
2018-09-24T02:37:46.677Z,8.80
2018-09-24T02:40:22.182Z,8.80
2018-09-24T02:42:51.405Z,8.70
2018-09-24T02:45:20.723Z,8.80
2018-09-24T02:47:49.619Z,8.70
2018-09-24T02:50:18.495Z,8.80
2018-09-24T02:52:47.370Z,8.80
2018-09-24T02:55:18.494Z,8.70
2018-09-24T02:57:47.363Z,8.70
2018-09-24T03:00:20.755Z,8.70
2018-09-24T03:02:49.896Z,8.70
2018-09-24T03:05:18.802Z,8.70
2018-09-24T03:07:47.658Z,8.60
2018-09-24T03:10:16.603Z,8.70
2018-09-24T03:12:47.871Z,8.70
2018-09-24T03:15:16.754Z,8.70
2018-09-24T03:17:45.626Z,8.70
2018-09-24T03:20:14.830Z,8.60
2018-09-24T03:22:43.699Z,8.60
2018-09-24T03:25:18.530Z,8.50
2018-09-24T03:27:47.525Z,8.50
2018-09-24T03:30:16.762Z,8.40
2018-09-24T03:32:45.639Z,8.40
2018-09-24T03:35:14.526Z,8.40
2018-09-24T03:37:43.387Z,8.30
2018-09-24T03:40:12.266Z,8.30
2018-09-24T03:42:41.126Z,8.30
2018-09-24T03:45:10.015Z,8.30
2018-09-24T03:47:38.886Z,8.20
2018-09-24T03:50:07.794Z,8.20
2018-09-24T03:52:36.673Z,8.20
2018-09-24T03:55:05.606Z,8.20
2018-09-24T03:57:34.492Z,8.10
2018-09-24T04:00:03.482Z,8.10
2018-09-24T04:02:32.494Z,8.10
2018-09-24T04:05:06.634Z,8.10
2018-09-24T04:07:40.814Z,8.10
2018-09-24T04:10:15.190Z,8.10
2018-09-24T04:12:49.218Z,8.10
2018-09-24T04:15:23.595Z,8.10
2018-09-24T04:17:57.798Z,8.10
2018-09-24T04:20:32.102Z,8.10
2018-09-24T04:23:06.335Z,8.10
2018-09-24T04:25:40.569Z,8.10
2018-09-24T04:28:14.815Z,8.00
2018-09-24T04:30:48.939Z,8.00
2018-09-24T04:33:23.091Z,8.00
2018-09-24T04:35:57.183Z,8.00
2018-09-24T04:38:31.357Z,8.00
2018-09-24T04:41:05.734Z,8.00
2018-09-24T04:43:40.066Z,8.00
2018-09-24T04:46:14.257Z,8.00
2018-09-24T04:48:48.429Z,7.90
2018-09-24T04:51:22.806Z,7.90
2018-09-24T04:53:56.977Z,7.90
2018-09-24T04:56:31.219Z,7.90
2018-09-24T04:59:05.422Z,7.90
2018-09-24T05:01:39.606Z,7.80
2018-09-24T05:04:13.830Z,7.80
2018-09-24T05:06:48.015Z,7.80
2018-09-24T05:09:22.166Z,7.70
2018-09-24T05:11:56.321Z,7.80
2018-09-24T05:14:30.478Z,7.80
2018-09-24T05:17:04.634Z,7.90
2018-09-24T05:19:38.737Z,7.90
2018-09-24T05:22:13.130Z,7.80
2018-09-24T05:24:47.323Z,7.80
2018-09-24T05:27:21.532Z,7.80
2018-09-24T05:29:55.597Z,7.80
2018-09-24T05:32:29.869Z,7.80
2018-09-24T05:35:04.216Z,7.80
2018-09-24T05:37:38.332Z,7.80
2018-09-24T05:40:12.847Z,7.80
2018-09-24T05:42:47.087Z,7.80
2018-09-24T05:45:21.498Z,7.70
2018-09-24T05:47:55.741Z,7.80
2018-09-24T05:50:29.866Z,7.90
2018-09-24T05:53:04.111Z,7.80
2018-09-24T05:55:38.266Z,7.80
2018-09-24T05:58:12.558Z,7.90
2018-09-24T06:00:46.874Z,7.90
2018-09-24T06:03:21.189Z,7.90
2018-09-24T06:05:55.426Z,8.00
2018-09-24T06:08:29.506Z,8.00
2018-09-24T06:11:03.667Z,8.10
2018-09-24T06:13:38.025Z,8.10
2018-09-24T06:16:12.367Z,8.20
2018-09-24T06:18:46.782Z,8.20
2018-09-24T06:21:20.901Z,8.30
2018-09-24T06:23:55.070Z,8.30
2018-09-24T06:26:29.231Z,8.40
2018-09-24T06:29:03.590Z,8.40
2018-09-24T06:31:37.813Z,8.50
2018-09-24T06:34:12.229Z,8.50
2018-09-24T06:36:46.470Z,8.60
2018-09-24T06:39:20.741Z,8.70
2018-09-24T06:41:54.933Z,8.80
2018-09-24T06:44:29.070Z,8.90
2018-09-24T06:47:03.254Z,8.90
2018-09-24T06:49:37.403Z,8.90
2018-09-24T06:52:11.737Z,8.90
2018-09-24T06:54:46.007Z,9.00
2018-09-24T06:57:20.431Z,9.00
2018-09-24T06:59:54.794Z,9.00
2018-09-24T07:02:29.134Z,9.00
2018-09-24T07:05:03.351Z,9.00
2018-09-24T07:07:37.590Z,9.10
2018-09-24T07:10:11.879Z,9.10
2018-09-24T07:12:45.990Z,9.20
2018-09-24T07:15:20.138Z,9.30
2018-09-24T07:17:54.224Z,9.30
2018-09-24T07:20:28.479Z,9.30
2018-09-24T07:23:02.702Z,9.20
2018-09-24T07:25:36.827Z,9.20
2018-09-24T07:28:11.010Z,9.20
2018-09-24T07:30:45.260Z,9.20
2018-09-24T07:33:19.474Z,9.30
2018-09-24T07:35:53.781Z,9.40
2018-09-24T07:38:27.965Z,9.60
2018-09-24T07:41:02.188Z,9.70
2018-09-24T07:43:36.621Z,9.60
2018-09-24T07:46:10.803Z,9.70
2018-09-24T07:48:45.094Z,9.80
2018-09-24T07:51:19.202Z,9.80
2018-09-24T07:53:53.524Z,9.80
2018-09-24T07:56:27.773Z,9.90
2018-09-24T07:59:01.992Z,9.90
2018-09-24T08:01:36.298Z,10.00
2018-09-24T08:04:10.581Z,9.80
2018-09-24T08:06:44.902Z,10.00
2018-09-24T08:09:19.118Z,10.10
2018-09-24T08:11:53.491Z,10.10
2018-09-24T08:14:27.939Z,10.00
2018-09-24T08:17:02.365Z,10.20
2018-09-24T08:19:36.658Z,10.30
2018-09-24T08:22:10.922Z,10.30
2018-09-24T08:24:45.087Z,10.30
2018-09-24T08:27:19.430Z,10.20
2018-09-24T08:29:53.877Z,10.30
2018-09-24T08:32:28.139Z,10.30
2018-09-24T08:35:02.305Z,10.40
2018-09-24T08:37:36.513Z,10.60
2018-09-24T08:40:10.968Z,10.60
2018-09-24T08:42:45.255Z,10.60
2018-09-24T08:45:19.670Z,10.80
2018-09-24T08:47:53.842Z,11.10
2018-09-24T08:50:27.975Z,11.10
2018-09-24T08:53:02.274Z,11.10
2018-09-24T08:55:36.383Z,11.00
2018-09-24T08:58:10.746Z,10.80
2018-09-24T09:00:44.838Z,11.00
2018-09-24T09:03:19.082Z,11.30
2018-09-24T09:05:53.291Z,11.30
2018-09-24T09:08:27.582Z,11.40
2018-09-24T09:11:01.757Z,11.70
2018-09-24T09:13:36.099Z,11.90
2018-09-24T09:16:10.517Z,11.80
2018-09-24T09:18:44.870Z,11.60
2018-09-24T09:21:19.219Z,11.50
2018-09-24T09:23:53.446Z,11.40
2018-09-24T09:26:27.708Z,11.60
2018-09-24T09:29:01.869Z,11.80
2018-09-24T09:31:36.207Z,11.80
2018-09-24T09:34:10.595Z,11.70
2018-09-24T09:36:44.661Z,11.70
2018-09-24T09:39:18.902Z,12.00
2018-09-24T09:41:53.255Z,12.20
2018-09-24T09:44:27.561Z,12.10
2018-09-24T09:47:01.886Z,12.00
2018-09-24T09:49:36.367Z,11.90
2018-09-24T09:52:10.630Z,11.90
2018-09-24T09:54:44.978Z,12.20
2018-09-24T09:57:19.166Z,12.10
2018-09-24T09:59:53.335Z,12.00
2018-09-24T10:02:27.684Z,11.90
2018-09-24T10:05:01.827Z,12.20
2018-09-24T10:07:36.190Z,12.20
2018-09-24T10:10:10.966Z,12.10
2018-09-24T10:12:45.300Z,12.10
2018-09-24T10:15:19.531Z,12.10
2018-09-24T10:17:53.887Z,12.30
2018-09-24T10:20:28.126Z,12.60
2018-09-24T10:23:02.667Z,12.70
2018-09-24T10:25:37.222Z,12.70
2018-09-24T10:28:11.565Z,12.80
2018-09-24T10:30:45.726Z,13.10
2018-09-24T10:33:20.034Z,13.30
2018-09-24T10:35:54.227Z,13.30
2018-09-24T10:38:28.562Z,13.10
2018-09-24T10:41:02.786Z,12.90
2018-09-24T10:43:36.938Z,12.70
2018-09-24T10:46:11.243Z,12.70
2018-09-24T10:48:45.567Z,12.70
2018-09-24T10:51:19.733Z,12.80
2018-09-24T10:53:53.890Z,13.00
2018-09-24T10:56:28.132Z,13.10
2018-09-24T10:59:09.404Z,12.90
2018-09-24T11:01:43.651Z,12.70
2018-09-24T11:04:18.007Z,12.50
2018-09-24T11:06:52.347Z,12.50
2018-09-24T11:09:27.230Z,12.50
2018-09-24T11:12:01.520Z,13.00
2018-09-24T11:14:35.958Z,13.20
2018-09-24T11:17:10.501Z,13.20
2018-09-24T11:19:44.479Z,13.20
2018-09-24T11:22:18.859Z,13.10
2018-09-24T11:24:53.219Z,12.80
2018-09-24T11:27:27.439Z,12.70
2018-09-24T11:30:01.755Z,12.70
2018-09-24T11:32:36.559Z,12.90
2018-09-24T11:35:11.918Z,13.30
2018-09-24T11:37:46.163Z,13.70
2018-09-24T11:40:20.602Z,14.10
2018-09-24T11:42:55.050Z,14.40
2018-09-24T11:45:29.334Z,14.30
2018-09-24T11:48:04.325Z,14.70
2018-09-24T11:50:38.578Z,14.60
2018-09-24T11:53:12.934Z,14.30
2018-09-24T11:55:46.982Z,14.50
2018-09-24T11:58:21.068Z,14.70
2018-09-24T12:00:55.310Z,14.80
2018-09-24T12:03:29.371Z,15.20
2018-09-24T12:06:03.574Z,15.60
2018-09-24T12:08:37.894Z,14.90
2018-09-24T12:11:12.278Z,14.40
2018-09-24T12:13:46.586Z,14.30
2018-09-24T12:16:20.957Z,14.40
2018-09-24T12:18:55.266Z,14.70
2018-09-24T12:21:29.514Z,15.00
2018-09-24T12:24:03.687Z,14.70
2018-09-24T12:26:37.847Z,14.40
2018-09-24T12:29:12.162Z,14.30
2018-09-24T12:31:46.625Z,15.10
2018-09-24T12:34:20.818Z,15.80
2018-09-24T12:36:55.192Z,15.90
2018-09-24T12:39:29.370Z,16.20
2018-09-24T12:42:03.604Z,16.30
2018-09-24T12:44:37.860Z,16.20
2018-09-24T12:47:12.299Z,16.40
2018-09-24T12:49:48.434Z,16.40
2018-09-24T12:52:22.659Z,16.90
2018-09-24T12:54:57.031Z,16.70
2018-09-24T12:57:31.368Z,16.80
2018-09-24T13:00:05.730Z,16.70
2018-09-24T13:02:40.099Z,16.80
2018-09-24T13:05:14.339Z,17.00
2018-09-24T13:07:48.555Z,16.30
2018-09-24T13:10:22.896Z,15.70
2018-09-24T13:12:57.131Z,15.80
2018-09-24T13:15:31.503Z,16.20
2018-09-24T13:18:05.822Z,16.60
2018-09-24T13:20:40.111Z,16.90
2018-09-24T13:23:14.450Z,16.10
2018-09-24T13:25:48.518Z,15.40
2018-09-24T13:28:22.731Z,15.00
2018-09-24T13:30:57.003Z,15.10
2018-09-24T13:33:31.403Z,15.30
2018-09-24T13:36:05.826Z,15.30
2018-09-24T13:38:40.122Z,15.40
2018-09-24T13:41:14.339Z,15.30
2018-09-24T13:43:48.783Z,15.40
2018-09-24T13:46:23.051Z,15.40
2018-09-24T13:48:57.239Z,15.10
2018-09-24T13:51:31.355Z,15.00
2018-09-24T13:54:05.558Z,15.10
2018-09-24T13:56:39.840Z,15.30
2018-09-24T13:59:13.974Z,15.70
2018-09-24T14:01:48.296Z,16.00
2018-09-24T14:04:22.511Z,16.10
2018-09-24T14:06:56.877Z,15.80
2018-09-24T14:09:31.100Z,15.50
2018-09-24T14:12:05.386Z,15.20
2018-09-24T14:14:39.670Z,15.50
2018-09-24T14:17:13.906Z,16.00
2018-09-24T14:19:48.087Z,16.40
2018-09-24T14:22:22.735Z,16.40
2018-09-24T14:24:57.086Z,16.60
2018-09-24T14:27:31.595Z,16.00
2018-09-24T14:30:05.722Z,15.80
2018-09-24T14:32:40.006Z,15.80
2018-09-24T14:35:14.331Z,15.90
2018-09-24T14:37:48.722Z,15.80
2018-09-24T14:40:22.963Z,15.60
2018-09-24T14:42:57.052Z,15.60
2018-09-24T14:45:31.130Z,15.30
2018-09-24T14:48:05.306Z,15.00
2018-09-24T14:50:39.550Z,14.90
2018-09-24T14:53:13.618Z,14.90
2018-09-24T14:55:47.870Z,15.20
2018-09-24T14:58:21.975Z,15.30
2018-09-24T15:00:56.163Z,15.80
2018-09-24T15:03:30.315Z,16.80
2018-09-24T15:06:04.531Z,17.40
2018-09-24T15:08:42.005Z,17.40
2018-09-24T15:11:17.082Z,17.30
2018-09-24T15:13:51.337Z,17.40
2018-09-24T15:16:25.730Z,17.30
2018-09-24T15:19:00.111Z,17.40
2018-09-24T15:21:34.332Z,17.40
2018-09-24T15:24:08.538Z,17.20
2018-09-24T15:26:42.780Z,17.20
2018-09-24T15:29:17.082Z,17.20
2018-09-24T15:31:51.278Z,17.90
2018-09-24T15:34:25.546Z,18.60
2018-09-24T15:36:59.857Z,17.80
2018-09-24T15:39:34.729Z,17.00
2018-09-24T15:42:10.926Z,17.20
2018-09-24T15:44:45.314Z,17.50
2018-09-24T15:47:19.706Z,17.80
2018-09-24T15:49:54.099Z,17.60
2018-09-24T15:52:28.451Z,17.10
2018-09-24T15:55:02.514Z,16.70
2018-09-24T15:57:36.747Z,16.30
2018-09-24T16:00:11.370Z,15.90
2018-09-24T16:02:45.833Z,15.60
2018-09-24T16:05:20.148Z,15.50
2018-09-24T16:07:54.431Z,15.20
2018-09-24T16:10:28.651Z,14.90
2018-09-24T16:13:02.896Z,14.90
2018-09-24T16:15:37.334Z,15.10
2018-09-24T16:18:11.674Z,15.00
2018-09-24T16:20:45.891Z,14.90
2018-09-24T16:23:20.011Z,14.80
2018-09-24T16:25:54.196Z,14.60
2018-09-24T16:28:28.374Z,14.40
2018-09-24T16:31:02.626Z,14.20
2018-09-24T16:33:37.051Z,14.00
2018-09-24T16:36:11.414Z,13.80
2018-09-24T16:38:45.565Z,13.60
2018-09-24T16:41:19.799Z,13.60
2018-09-24T16:43:53.986Z,13.40
2018-09-24T16:46:28.113Z,13.30
2018-09-24T16:49:02.362Z,13.20
2018-09-24T16:51:36.783Z,13.10
2018-09-24T16:54:11.210Z,13.00
2018-09-24T16:56:45.420Z,12.90
2018-09-24T16:59:19.583Z,12.90
2018-09-24T17:01:53.763Z,12.80
2018-09-24T17:04:28.156Z,12.80
2018-09-24T17:07:02.478Z,12.70
2018-09-24T17:09:40.555Z,12.60
2018-09-24T17:12:14.776Z,12.50
2018-09-24T17:14:48.914Z,12.50
2018-09-24T17:17:23.267Z,12.50
2018-09-24T17:19:57.658Z,12.40
2018-09-24T17:22:31.887Z,12.30
2018-09-24T17:25:06.081Z,12.30
2018-09-24T17:27:40.515Z,12.20
2018-09-24T17:30:14.711Z,12.10
2018-09-24T17:32:49.917Z,12.10
2018-09-24T17:35:24.310Z,12.10
2018-09-24T17:37:58.564Z,12.00
2018-09-24T17:40:32.727Z,12.00
2018-09-24T17:43:07.074Z,12.00
2018-09-24T17:45:41.431Z,12.00
2018-09-24T17:48:15.784Z,11.90
2018-09-24T17:50:50.207Z,11.80
2018-09-24T17:53:24.379Z,11.70
2018-09-24T17:55:58.705Z,11.70
2018-09-24T17:58:33.071Z,11.80
2018-09-24T18:01:07.329Z,11.80
2018-09-24T18:03:41.511Z,11.80
2018-09-24T18:06:15.818Z,11.70
2018-09-24T18:08:50.148Z,11.70
2018-09-24T18:11:24.462Z,11.80
2018-09-24T18:13:59.802Z,11.70
2018-09-24T18:16:33.867Z,11.80
2018-09-24T18:19:08.061Z,11.80
2018-09-24T18:21:42.366Z,11.70
2018-09-24T18:24:16.619Z,11.70
2018-09-24T18:26:50.927Z,11.70
2018-09-24T18:29:25.278Z,11.70
2018-09-24T18:31:59.451Z,11.60
2018-09-24T18:34:33.588Z,11.60
2018-09-24T18:37:07.935Z,11.60
2018-09-24T18:39:42.227Z,11.60
2018-09-24T18:42:16.603Z,11.60
2018-09-24T18:44:50.698Z,11.60
2018-09-24T18:47:25.087Z,11.70
2018-09-24T18:49:59.331Z,11.60
2018-09-24T18:52:33.494Z,11.60
2018-09-24T18:55:08.029Z,11.60
2018-09-24T18:57:42.299Z,11.60
2018-09-24T19:00:16.638Z,11.70
2018-09-24T19:02:50.874Z,11.70
2018-09-24T19:05:25.022Z,11.70
2018-09-24T19:07:59.943Z,11.70
2018-09-24T19:10:35.039Z,11.60
2018-09-24T19:13:09.587Z,11.60
2018-09-24T19:15:43.890Z,11.60
2018-09-24T19:18:18.355Z,11.50
2018-09-24T19:20:52.495Z,11.40
2018-09-24T19:23:26.709Z,11.40
2018-09-24T19:26:01.032Z,11.40
2018-09-24T19:28:35.391Z,11.40
2018-09-24T19:31:09.659Z,11.30
2018-09-24T19:33:43.926Z,11.20
2018-09-24T19:36:18.269Z,11.20
2018-09-24T19:38:52.611Z,11.20
2018-09-24T19:41:26.956Z,11.10
2018-09-24T19:44:01.087Z,11.10
2018-09-24T19:46:35.476Z,11.00
2018-09-24T19:49:09.706Z,10.90
2018-09-24T19:51:44.068Z,10.90
2018-09-24T19:54:18.429Z,11.00
2018-09-24T19:56:52.747Z,10.90
2018-09-24T19:59:26.951Z,10.90
2018-09-24T20:02:01.222Z,10.90
2018-09-24T20:04:35.422Z,10.80
2018-09-24T20:07:09.530Z,10.70
2018-09-24T20:09:43.735Z,10.70
2018-09-24T20:12:17.938Z,10.70
2018-09-24T20:14:52.182Z,10.60
2018-09-24T20:17:26.367Z,10.60
2018-09-24T20:20:00.757Z,10.60
2018-09-24T20:22:35.254Z,10.60
2018-09-24T20:25:09.651Z,10.50
2018-09-24T20:27:43.867Z,10.40
2018-09-24T20:30:18.156Z,10.40
2018-09-24T20:32:52.250Z,10.20
2018-09-24T20:35:26.710Z,10.10
2018-09-24T20:38:00.883Z,10.20
2018-09-24T20:40:35.375Z,10.20
2018-09-24T20:43:09.803Z,9.80
2018-09-24T20:45:43.983Z,9.70
2018-09-24T20:48:18.163Z,9.70
2018-09-24T20:50:52.332Z,9.70
2018-09-24T20:53:26.683Z,9.70
2018-09-24T20:56:00.962Z,9.70
2018-09-24T20:58:35.206Z,9.70
2018-09-24T21:01:09.618Z,9.60
2018-09-24T21:03:43.809Z,9.50
2018-09-24T21:06:17.951Z,9.40
2018-09-24T21:08:52.273Z,9.40
2018-09-24T21:11:26.543Z,9.40
2018-09-24T21:14:00.857Z,9.40
2018-09-24T21:16:35.247Z,9.40
2018-09-24T21:19:09.484Z,9.30
2018-09-24T21:21:43.831Z,9.30
2018-09-24T21:24:17.946Z,9.20
2018-09-24T21:26:52.178Z,9.30
2018-09-24T21:29:26.539Z,9.30
2018-09-24T21:32:00.650Z,9.00
2018-09-24T21:34:35.206Z,9.00
2018-09-24T21:37:09.399Z,9.00
2018-09-24T21:39:43.618Z,8.80
2018-09-24T21:42:17.890Z,8.80
2018-09-24T21:44:52.182Z,8.80
2018-09-24T21:47:26.114Z,8.80
2018-09-24T21:50:00.498Z,8.70
2018-09-24T21:52:34.795Z,8.60
2018-09-24T21:55:09.177Z,8.60
2018-09-24T21:57:43.468Z,8.50
2018-09-24T22:00:17.814Z,8.60
2018-09-24T22:02:52.011Z,8.70
2018-09-24T22:05:26.378Z,8.70
2018-09-24T22:08:00.690Z,8.80
2018-09-24T22:10:35.011Z,8.70
2018-09-24T22:13:09.242Z,8.70
2018-09-24T22:15:43.338Z,8.70
2018-09-24T22:18:17.630Z,8.50
2018-09-24T22:20:52.051Z,8.40
2018-09-24T22:23:26.252Z,8.30
2018-09-24T22:26:00.503Z,8.40
2018-09-24T22:28:34.770Z,8.20
2018-09-24T22:31:08.959Z,8.30
2018-09-24T22:33:43.126Z,8.20
2018-09-24T22:36:17.295Z,8.20
2018-09-24T22:38:51.436Z,8.20
2018-09-24T22:41:25.620Z,8.20
2018-09-24T22:43:59.780Z,8.10
2018-09-24T22:46:34.212Z,8.10
2018-09-24T22:49:08.490Z,8.10
2018-09-24T22:51:42.812Z,8.20
2018-09-24T22:54:17.079Z,8.20
2018-09-24T22:56:51.315Z,8.20
2018-09-24T22:59:25.568Z,8.20
2018-09-24T23:01:59.738Z,8.20
2018-09-24T23:04:33.947Z,8.20
2018-09-24T23:07:08.130Z,8.10
2018-09-24T23:09:42.424Z,8.00
2018-09-24T23:12:16.842Z,7.90
2018-09-24T23:14:51.078Z,7.80
2018-09-24T23:17:25.259Z,7.60
2018-09-24T23:19:59.382Z,7.50
2018-09-24T23:22:33.683Z,7.60
2018-09-24T23:25:07.947Z,7.50
2018-09-24T23:27:42.191Z,7.60
2018-09-24T23:30:16.378Z,7.70
2018-09-24T23:32:50.613Z,7.80
2018-09-24T23:35:24.758Z,7.90
2018-09-24T23:37:58.984Z,8.00
2018-09-24T23:40:33.355Z,8.10
2018-09-24T23:43:07.538Z,8.10
2018-09-24T23:45:41.923Z,8.10
2018-09-24T23:48:16.210Z,8.10
2018-09-24T23:50:50.410Z,8.20
2018-09-24T23:53:24.502Z,8.10
2018-09-24T23:55:58.842Z,8.00
2018-09-24T23:58:33.087Z,8.00
